createdAt,value
2023-03-04T00:04:23.391Z,12.33
2023-03-04T00:14:30.563Z,11.10
2023-03-04T00:24:35.273Z,11.57
2023-03-04T00:34:40.812Z,13.70
2023-03-04T00:44:45.371Z,12.23
2023-03-04T00:54:52.792Z,12.90
2023-03-04T01:05:00.826Z,12.57
2023-03-04T01:15:08.108Z,13.23
2023-03-04T01:25:16.996Z,5.57
2023-03-04T01:35:20.192Z,12.20
2023-03-04T01:45:24.595Z,9.20
2023-03-04T01:55:31.312Z,11.17
2023-03-04T02:05:37.957Z,14.17
2023-03-04T02:15:45.752Z,12.17
2023-03-04T02:26:24.347Z,11.30
2023-03-04T02:36:36.913Z,10.63
2023-03-04T02:46:41.372Z,14.17
2023-03-04T02:56:49.229Z,9.90
2023-03-04T03:06:55.039Z,14.73
2023-03-04T03:17:03.054Z,15.13
2023-03-04T03:27:09.068Z,14.23
2023-03-04T03:37:12.137Z,11.40
2023-03-04T03:47:17.363Z,15.63
2023-03-04T03:57:22.768Z,12.67
2023-03-04T04:07:24.814Z,12.40
2023-03-04T04:17:27.090Z,14.70
2023-03-04T04:27:33.982Z,14.07
2023-03-04T04:37:37.103Z,13.63
2023-03-04T04:47:41.449Z,10.60
2023-03-04T04:57:45.794Z,14.47
2023-03-04T05:07:55.572Z,11.73
2023-03-04T05:18:04.848Z,11.97
2023-03-04T05:28:12.526Z,8.90
2023-03-04T05:38:20.112Z,12.50
2023-03-04T05:48:24.997Z,12.73
2023-03-04T05:58:32.397Z,11.30
2023-03-04T06:08:37.219Z,8.17
2023-03-04T06:18:41.571Z,10.83
2023-03-04T06:28:47.149Z,11.13
2023-03-04T06:38:51.661Z,7.23
2023-03-04T06:48:53.859Z,11.80
2023-03-04T06:58:56.054Z,12.07
2023-03-04T07:09:00.691Z,11.77
2023-03-04T07:19:05.670Z,9.77
2023-03-04T07:29:11.372Z,10.87
2023-03-04T07:39:16.042Z,11.50
2023-03-04T07:49:18.138Z,10.77
2023-03-04T07:59:25.255Z,9.93
2023-03-04T08:09:31.586Z,9.27
2023-03-04T08:19:33.699Z,9.43
2023-03-04T08:29:40.442Z,8.97
2023-03-04T08:39:46.023Z,9.83
2023-03-04T08:49:50.501Z,9.57
2023-03-04T08:59:53.842Z,6.93
2023-03-04T09:09:56.381Z,9.83
2023-03-04T09:20:04.493Z,9.17
2023-03-04T09:30:09.666Z,9.07
2023-03-04T09:40:20.373Z,5.83
2023-03-04T09:50:22.773Z,9.20
2023-03-04T10:00:33.266Z,8.83
2023-03-04T10:10:44.070Z,6.70
2023-03-04T10:21:18.817Z,10.00
2023-03-04T10:31:33.133Z,9.20
2023-03-04T10:41:41.320Z,8.10
2023-03-04T10:51:52.019Z,7.20
2023-03-04T11:01:58.821Z,8.50
2023-03-04T11:12:11.090Z,9.97
2023-03-04T11:22:16.706Z,8.57
2023-03-04T11:32:27.644Z,9.27
2023-03-04T11:42:44.339Z,6.63
2023-03-04T11:53:04.964Z,6.57
2023-03-04T12:03:24.725Z,7.83
2023-03-04T12:13:36.529Z,8.23
2023-03-04T12:24:06.043Z,7.97
2023-03-04T12:34:33.854Z,9.73
2023-03-04T12:44:48.874Z,8.60
2023-03-04T12:54:54.203Z,8.10
2023-03-04T13:05:18.178Z,8.07
2023-03-04T13:15:26.643Z,7.37
2023-03-04T13:25:58.150Z,7.20
2023-03-04T13:36:05.447Z,4.43
2023-03-04T13:46:24.111Z,2.03
2023-03-04T13:56:29.494Z,2.43
2023-03-04T14:06:31.729Z,1.97
2023-03-04T14:16:42.262Z,1.97
2023-03-04T14:26:47.645Z,1.73
2023-03-04T14:36:51.935Z,2.20
2023-03-04T14:47:07.517Z,2.00
2023-03-04T14:57:26.264Z,1.83
2023-03-04T15:07:38.078Z,1.63
2023-03-04T15:17:42.740Z,1.30
2023-03-04T15:27:49.005Z,1.20
2023-03-04T15:37:55.158Z,1.20
2023-03-04T15:47:59.909Z,1.30
2023-03-04T15:58:06.926Z,1.30
2023-03-04T16:08:12.263Z,1.50
2023-03-04T16:18:19.156Z,1.30
2023-03-04T16:28:24.516Z,1.20
2023-03-04T16:38:34.733Z,1.00
2023-03-04T16:48:40.104Z,1.03
2023-03-04T16:58:50.233Z,0.97
2023-03-04T17:08:55.004Z,1.13
2023-03-04T17:19:00.198Z,1.40
2023-03-04T17:29:07.059Z,1.40
2023-03-04T17:39:09.397Z,2.57
2023-03-04T17:49:14.550Z,1.00
2023-03-04T17:59:22.358Z,1.87
2023-03-04T18:09:27.314Z,0.73
2023-03-04T18:19:34.326Z,1.07
2023-03-04T18:29:36.460Z,1.10
2023-03-04T18:39:38.752Z,1.20
2023-03-04T18:49:43.814Z,1.40
2023-03-04T18:59:55.959Z,1.30
2023-03-04T19:10:03.473Z,1.10
2023-03-04T19:20:09.526Z,1.23
2023-03-04T19:30:12.237Z,1.40
2023-03-04T19:40:17.146Z,1.60
2023-03-04T19:50:19.894Z,1.77
2023-03-04T20:00:25.176Z,1.63
2023-03-04T20:10:32.084Z,1.10
2023-03-04T20:20:36.497Z,1.67
2023-03-04T20:30:40.884Z,1.93
2023-03-04T20:40:45.524Z,1.87
2023-03-04T20:50:47.714Z,2.13
2023-03-04T21:00:52.079Z,1.60
2023-03-04T21:10:57.390Z,2.40
2023-03-04T21:21:01.003Z,1.73
2023-03-04T21:31:09.607Z,1.87
2023-03-04T21:41:16.755Z,1.93
2023-03-04T21:51:19.414Z,2.77
2023-03-04T22:01:22.059Z,2.90
2023-03-04T22:11:32.026Z,2.40
2023-03-04T22:21:34.231Z,1.63
2023-03-04T22:31:41.323Z,1.73
2023-03-04T22:41:43.617Z,2.43
2023-03-04T22:51:49.698Z,2.10
2023-03-04T23:01:54.329Z,2.63
2023-03-04T23:11:59.453Z,2.13
2023-03-04T23:22:02.700Z,2.03
2023-03-04T23:32:09.861Z,2.00
2023-03-04T23:42:12.080Z,2.40
2023-03-04T23:52:18.945Z,2.30
